sensor_id;sensor_type;location;lat;lon;timestamp;temperature;humidity
10812;DHT22;5458;51.496;7.334;2023-04-01T00:00:51;11.10;99.90
10812;DHT22;5458;51.496;7.334;2023-04-01T00:03:17;11.10;99.90
10812;DHT22;5458;51.496;7.334;2023-04-01T00:05:43;11.10;99.90
10812;DHT22;5458;51.496;7.334;2023-04-01T00:08:09;11.00;99.90
10812;DHT22;5458;51.496;7.334;2023-04-01T00:10:34;11.00;99.90
10812;DHT22;5458;51.496;7.334;2023-04-01T00:13:00;11.10;99.90
10812;DHT22;5458;51.496;7.334;2023-04-01T00:15:25;11.00;99.90
10812;DHT22;5458;51.496;7.334;2023-04-01T00:17:51;11.00;99.90
10812;DHT22;5458;51.496;7.334;2023-04-01T00:20:17;10.90;99.90
10812;DHT22;5458;51.496;7.334;2023-04-01T00:22:42;10.90;99.90
10812;DHT22;5458;51.496;7.334;2023-04-01T00:25:09;10.90;99.90
10812;DHT22;5458;51.496;7.334;2023-04-01T00:27:35;10.90;99.90
10812;DHT22;5458;51.496;7.334;2023-04-01T00:30:00;10.90;99.90
10812;DHT22;5458;51.496;7.334;2023-04-01T00:32:26;10.90;99.90
10812;DHT22;5458;51.496;7.334;2023-04-01T00:34:52;11.00;99.90
10812;DHT22;5458;51.496;7.334;2023-04-01T00:37:19;11.00;99.90
10812;DHT22;5458;51.496;7.334;2023-04-01T00:39:44;10.90;99.90
10812;DHT22;5458;51.496;7.334;2023-04-01T00:42:11;11.00;99.90
10812;DHT22;5458;51.496;7.334;2023-04-01T00:44:38;11.00;99.90
10812;DHT22;5458;51.496;7.334;2023-04-01T00:47:04;11.00;99.90
10812;DHT22;5458;51.496;7.334;2023-04-01T00:49:34;10.90;99.90
10812;DHT22;5458;51.496;7.334;2023-04-01T00:52:02;10.90;99.90
10812;DHT22;5458;51.496;7.334;2023-04-01T00:54:30;10.90;99.90
10812;DHT22;5458;51.496;7.334;2023-04-01T00:57:02;10.90;99.90
10812;DHT22;5458;51.496;7.334;2023-04-01T00:59:36;10.90;99.90
10812;DHT22;5458;51.496;7.334;2023-04-01T01:02:07;10.90;99.90
10812;DHT22;5458;51.496;7.334;2023-04-01T01:04:34;10.80;99.90
10812;DHT22;5458;51.496;7.334;2023-04-01T01:12:40;10.90;99.90
10812;DHT22;5458;51.496;7.334;2023-04-01T01:15:25;10.90;99.90
10812;DHT22;5458;51.496;7.334;2023-04-01T01:34:20;10.80;99.90
10812;DHT22;5458;51.496;7.334;2023-04-01T01:36:50;10.70;99.90
10812;DHT22;5458;51.496;7.334;2023-04-01T01:39:20;10.70;99.90
10812;DHT22;5458;51.496;7.334;2023-04-01T01:41:47;10.70;99.90
10812;DHT22;5458;51.496;7.334;2023-04-01T01:44:16;10.70;99.90
10812;DHT22;5458;51.496;7.334;2023-04-01T01:46:42;10.80;99.90
10812;DHT22;5458;51.496;7.334;2023-04-01T01:49:11;10.70;99.90
10812;DHT22;5458;51.496;7.334;2023-04-01T01:51:38;10.80;99.90
10812;DHT22;5458;51.496;7.334;2023-04-01T01:54:05;10.80;99.90
10812;DHT22;5458;51.496;7.334;2023-04-01T01:56:30;10.70;99.90
10812;DHT22;5458;51.496;7.334;2023-04-01T01:59:03;10.80;99.90
10812;DHT22;5458;51.496;7.334;2023-04-01T02:01:34;10.80;99.90
10812;DHT22;5458;51.496;7.334;2023-04-01T02:04:01;10.80;99.90
10812;DHT22;5458;51.496;7.334;2023-04-01T02:06:30;10.80;99.90
10812;DHT22;5458;51.496;7.334;2023-04-01T02:09:02;10.80;99.90
10812;DHT22;5458;51.496;7.334;2023-04-01T02:11:53;10.80;99.90
10812;DHT22;5458;51.496;7.334;2023-04-01T02:14:23;10.80;99.90
10812;DHT22;5458;51.496;7.334;2023-04-01T02:16:57;10.70;99.90
10812;DHT22;5458;51.496;7.334;2023-04-01T02:19:31;10.70;99.90
10812;DHT22;5458;51.496;7.334;2023-04-01T02:22:01;10.70;99.90
10812;DHT22;5458;51.496;7.334;2023-04-01T02:24:28;10.70;99.90
10812;DHT22;5458;51.496;7.334;2023-04-01T02:26:55;10.70;99.90
10812;DHT22;5458;51.496;7.334;2023-04-01T02:29:23;10.60;99.90
10812;DHT22;5458;51.496;7.334;2023-04-01T02:31:50;10.60;99.90
10812;DHT22;5458;51.496;7.334;2023-04-01T02:34:17;10.70;99.90
10812;DHT22;5458;51.496;7.334;2023-04-01T02:36:42;10.60;99.90
10812;DHT22;5458;51.496;7.334;2023-04-01T02:39:08;10.60;99.90
10812;DHT22;5458;51.496;7.334;2023-04-01T02:41:41;10.60;99.90
10812;DHT22;5458;51.496;7.334;2023-04-01T02:44:07;10.60;99.90
10812;DHT22;5458;51.496;7.334;2023-04-01T02:46:33;10.60;99.90
10812;DHT22;5458;51.496;7.334;2023-04-01T02:48:59;10.60;99.90
10812;DHT22;5458;51.496;7.334;2023-04-01T02:51:25;10.60;99.90
10812;DHT22;5458;51.496;7.334;2023-04-01T02:53:51;10.60;99.90
10812;DHT22;5458;51.496;7.334;2023-04-01T02:56:16;10.60;99.90
10812;DHT22;5458;51.496;7.334;2023-04-01T02:58:42;10.60;99.90
10812;DHT22;5458;51.496;7.334;2023-04-01T03:01:08;10.60;99.90
10812;DHT22;5458;51.496;7.334;2023-04-01T03:03:34;10.60;99.90
10812;DHT22;5458;51.496;7.334;2023-04-01T03:06:08;10.50;99.90
10812;DHT22;5458;51.496;7.334;2023-04-01T03:08:34;10.50;99.90
10812;DHT22;5458;51.496;7.334;2023-04-01T03:11:00;10.50;99.90
10812;DHT22;5458;51.496;7.334;2023-04-01T03:13:25;10.50;99.90
10812;DHT22;5458;51.496;7.334;2023-04-01T03:15:51;10.50;99.90
10812;DHT22;5458;51.496;7.334;2023-04-01T03:18:17;10.50;99.90
10812;DHT22;5458;51.496;7.334;2023-04-01T03:20:43;10.50;99.90
10812;DHT22;5458;51.496;7.334;2023-04-01T03:23:08;10.50;99.90
10812;DHT22;5458;51.496;7.334;2023-04-01T03:25:34;10.50;99.90
10812;DHT22;5458;51.496;7.334;2023-04-01T03:28:00;10.60;99.90
10812;DHT22;5458;51.496;7.334;2023-04-01T03:30:26;10.60;99.90
10812;DHT22;5458;51.496;7.334;2023-04-01T03:32:52;10.60;99.90
10812;DHT22;5458;51.496;7.334;2023-04-01T03:35:18;10.60;99.90
10812;DHT22;5458;51.496;7.334;2023-04-01T03:37:43;10.70;99.90
10812;DHT22;5458;51.496;7.334;2023-04-01T03:40:10;10.70;99.90
10812;DHT22;5458;51.496;7.334;2023-04-01T03:42:36;10.70;99.90
10812;DHT22;5458;51.496;7.334;2023-04-01T03:45:03;10.80;99.90
10812;DHT22;5458;51.496;7.334;2023-04-01T03:47:29;10.80;99.90
10812;DHT22;5458;51.496;7.334;2023-04-01T03:49:55;10.80;99.90
10812;DHT22;5458;51.496;7.334;2023-04-01T03:52:21;10.70;99.90
10812;DHT22;5458;51.496;7.334;2023-04-01T03:54:46;10.70;99.90
10812;DHT22;5458;51.496;7.334;2023-04-01T03:57:12;10.70;99.90
10812;DHT22;5458;51.496;7.334;2023-04-01T03:59:37;10.80;99.90
10812;DHT22;5458;51.496;7.334;2023-04-01T04:02:03;10.60;99.90
10812;DHT22;5458;51.496;7.334;2023-04-01T04:04:29;10.70;99.90
10812;DHT22;5458;51.496;7.334;2023-04-01T04:06:55;10.60;99.90
10812;DHT22;5458;51.496;7.334;2023-04-01T04:09:21;10.70;99.90
10812;DHT22;5458;51.496;7.334;2023-04-01T04:11:47;10.70;99.90
10812;DHT22;5458;51.496;7.334;2023-04-01T04:14:13;10.60;99.90
10812;DHT22;5458;51.496;7.334;2023-04-01T04:16:38;10.60;99.90
10812;DHT22;5458;51.496;7.334;2023-04-01T04:19:04;10.60;99.90
10812;DHT22;5458;51.496;7.334;2023-04-01T04:21:30;10.60;99.90
10812;DHT22;5458;51.496;7.334;2023-04-01T04:23:56;10.60;99.90
10812;DHT22;5458;51.496;7.334;2023-04-01T04:26:21;10.60;99.90
10812;DHT22;5458;51.496;7.334;2023-04-01T04:28:47;10.60;99.90
10812;DHT22;5458;51.496;7.334;2023-04-01T04:31:19;10.60;99.90
10812;DHT22;5458;51.496;7.334;2023-04-01T04:33:45;10.60;99.90
10812;DHT22;5458;51.496;7.334;2023-04-01T04:36:10;10.60;99.90
10812;DHT22;5458;51.496;7.334;2023-04-01T04:38:36;10.60;99.90
10812;DHT22;5458;51.496;7.334;2023-04-01T04:41:02;10.60;99.90
10812;DHT22;5458;51.496;7.334;2023-04-01T04:43:27;10.70;99.90
10812;DHT22;5458;51.496;7.334;2023-04-01T04:45:53;10.60;99.90
10812;DHT22;5458;51.496;7.334;2023-04-01T04:48:19;10.70;99.90
10812;DHT22;5458;51.496;7.334;2023-04-01T04:50:49;10.60;99.90
10812;DHT22;5458;51.496;7.334;2023-04-01T04:53:17;10.70;99.90
10812;DHT22;5458;51.496;7.334;2023-04-01T04:55:47;10.60;99.90
10812;DHT22;5458;51.496;7.334;2023-04-01T04:58:13;10.60;99.90
10812;DHT22;5458;51.496;7.334;2023-04-01T05:00:39;10.70;99.90
10812;DHT22;5458;51.496;7.334;2023-04-01T05:03:04;10.70;99.90
10812;DHT22;5458;51.496;7.334;2023-04-01T05:05:30;10.70;99.90
10812;DHT22;5458;51.496;7.334;2023-04-01T05:07:56;10.70;99.90
10812;DHT22;5458;51.496;7.334;2023-04-01T05:10:21;10.70;99.90
10812;DHT22;5458;51.496;7.334;2023-04-01T05:12:47;10.70;99.90
10812;DHT22;5458;51.496;7.334;2023-04-01T05:15:12;10.70;99.90
10812;DHT22;5458;51.496;7.334;2023-04-01T05:17:39;10.70;99.90
10812;DHT22;5458;51.496;7.334;2023-04-01T05:20:05;10.80;99.90
10812;DHT22;5458;51.496;7.334;2023-04-01T05:22:31;10.80;99.90
10812;DHT22;5458;51.496;7.334;2023-04-01T05:24:57;10.80;99.90
10812;DHT22;5458;51.496;7.334;2023-04-01T05:27:22;10.80;99.90
10812;DHT22;5458;51.496;7.334;2023-04-01T05:29:48;10.80;99.90
10812;DHT22;5458;51.496;7.334;2023-04-01T05:32:13;10.80;99.90
10812;DHT22;5458;51.496;7.334;2023-04-01T05:34:40;10.80;99.90
10812;DHT22;5458;51.496;7.334;2023-04-01T05:37:05;10.80;99.90
10812;DHT22;5458;51.496;7.334;2023-04-01T05:39:36;10.80;99.90
10812;DHT22;5458;51.496;7.334;2023-04-01T05:42:03;10.80;99.90
10812;DHT22;5458;51.496;7.334;2023-04-01T05:44:28;10.80;99.90
10812;DHT22;5458;51.496;7.334;2023-04-01T05:46:54;10.80;99.90
10812;DHT22;5458;51.496;7.334;2023-04-01T05:49:20;10.70;99.90
10812;DHT22;5458;51.496;7.334;2023-04-01T05:51:45;10.80;99.90
10812;DHT22;5458;51.496;7.334;2023-04-01T05:54:11;10.80;99.90
10812;DHT22;5458;51.496;7.334;2023-04-01T05:56:37;10.80;99.90
10812;DHT22;5458;51.496;7.334;2023-04-01T05:59:03;10.80;99.90
10812;DHT22;5458;51.496;7.334;2023-04-01T06:01:28;10.80;99.90
10812;DHT22;5458;51.496;7.334;2023-04-01T06:03:54;10.90;99.90
10812;DHT22;5458;51.496;7.334;2023-04-01T06:06:27;10.80;99.90
10812;DHT22;5458;51.496;7.334;2023-04-01T06:08:56;10.90;99.90
10812;DHT22;5458;51.496;7.334;2023-04-01T06:11:37;10.90;99.90
10812;DHT22;5458;51.496;7.334;2023-04-01T06:17:08;10.90;99.90
10812;DHT22;5458;51.496;7.334;2023-04-01T06:20:27;10.90;99.90
10812;DHT22;5458;51.496;7.334;2023-04-01T06:25:45;10.90;99.90
10812;DHT22;5458;51.496;7.334;2023-04-01T06:42:08;11.10;99.90
10812;DHT22;5458;51.496;7.334;2023-04-01T06:47:57;11.10;99.90
10812;DHT22;5458;51.496;7.334;2023-04-01T06:50:30;11.10;99.90
10812;DHT22;5458;51.496;7.334;2023-04-01T06:53:17;11.00;99.90
10812;DHT22;5458;51.496;7.334;2023-04-01T06:55:52;11.00;99.90
10812;DHT22;5458;51.496;7.334;2023-04-01T06:58:24;11.00;99.90
10812;DHT22;5458;51.496;7.334;2023-04-01T07:00:56;11.10;99.90
10812;DHT22;5458;51.496;7.334;2023-04-01T07:03:33;11.10;99.90
10812;DHT22;5458;51.496;7.334;2023-04-01T07:06:14;11.10;99.90
10812;DHT22;5458;51.496;7.334;2023-04-01T07:08:42;11.00;99.90
10812;DHT22;5458;51.496;7.334;2023-04-01T07:11:11;11.00;99.90
10812;DHT22;5458;51.496;7.334;2023-04-01T07:13:48;11.00;99.90
10812;DHT22;5458;51.496;7.334;2023-04-01T07:16:19;11.00;99.90
10812;DHT22;5458;51.496;7.334;2023-04-01T07:18:47;11.00;99.90
10812;DHT22;5458;51.496;7.334;2023-04-01T07:21:49;11.00;99.90
10812;DHT22;5458;51.496;7.334;2023-04-01T07:24:25;11.00;99.90
10812;DHT22;5458;51.496;7.334;2023-04-01T07:26:54;11.00;99.90
10812;DHT22;5458;51.496;7.334;2023-04-01T07:29:21;11.00;99.90
10812;DHT22;5458;51.496;7.334;2023-04-01T07:32:14;11.10;99.90
10812;DHT22;5458;51.496;7.334;2023-04-01T07:37:52;11.10;99.90
10812;DHT22;5458;51.496;7.334;2023-04-01T07:40:37;11.10;99.90
10812;DHT22;5458;51.496;7.334;2023-04-01T07:43:32;11.10;99.90
10812;DHT22;5458;51.496;7.334;2023-04-01T07:49:07;11.20;99.90
10812;DHT22;5458;51.496;7.334;2023-04-01T07:57:20;11.20;99.90
10812;DHT22;5458;51.496;7.334;2023-04-01T08:05:46;11.30;99.90
10812;DHT22;5458;51.496;7.334;2023-04-01T08:08:25;11.30;99.90
10812;DHT22;5458;51.496;7.334;2023-04-01T08:16:39;11.30;99.90
10812;DHT22;5458;51.496;7.334;2023-04-01T08:18:40;11.30;99.90
10812;DHT22;5458;51.496;7.334;2023-04-01T08:21:38;11.40;99.90
10812;DHT22;5458;51.496;7.334;2023-04-01T08:25:00;11.50;99.90
10812;DHT22;5458;51.496;7.334;2023-04-01T08:27:03;11.50;99.90
10812;DHT22;5458;51.496;7.334;2023-04-01T08:29:42;11.60;99.90
10812;DHT22;5458;51.496;7.334;2023-04-01T08:32:14;11.70;99.90
10812;DHT22;5458;51.496;7.334;2023-04-01T08:34:44;11.70;99.90
10812;DHT22;5458;51.496;7.334;2023-04-01T08:37:14;11.60;99.90
10812;DHT22;5458;51.496;7.334;2023-04-01T08:39:46;11.60;99.90
10812;DHT22;5458;51.496;7.334;2023-04-01T09:10:55;11.40;99.90
10812;DHT22;5458;51.496;7.334;2023-04-01T09:13:37;11.40;99.90
10812;DHT22;5458;51.496;7.334;2023-04-01T09:16:20;11.40;99.90
10812;DHT22;5458;51.496;7.334;2023-04-01T09:34:57;11.40;99.90
10812;DHT22;5458;51.496;7.334;2023-04-01T09:40:28;11.40;99.90
10812;DHT22;5458;51.496;7.334;2023-04-01T09:43:25;11.40;99.90
10812;DHT22;5458;51.496;7.334;2023-04-01T09:51:17;11.50;99.90
10812;DHT22;5458;51.496;7.334;2023-04-01T09:53:56;11.50;99.90
10812;DHT22;5458;51.496;7.334;2023-04-01T10:04:47;11.60;99.90
10812;DHT22;5458;51.496;7.334;2023-04-01T10:10:26;11.80;99.90
10812;DHT22;5458;51.496;7.334;2023-04-01T10:57:02;12.10;99.90
10812;DHT22;5458;51.496;7.334;2023-04-01T11:16:47;12.10;99.90
10812;DHT22;5458;51.496;7.334;2023-04-01T11:19:28;12.10;99.90
10812;DHT22;5458;51.496;7.334;2023-04-01T11:22:11;12.10;99.90
10812;DHT22;5458;51.496;7.334;2023-04-01T11:30:21;12.00;99.90
10812;DHT22;5458;51.496;7.334;2023-04-01T12:08:50;12.00;99.90
10812;DHT22;5458;51.496;7.334;2023-04-01T12:11:34;12.00;99.90
10812;DHT22;5458;51.496;7.334;2023-04-01T12:25:49;12.30;99.90
10812;DHT22;5458;51.496;7.334;2023-04-01T12:31:38;12.30;99.90
10812;DHT22;5458;51.496;7.334;2023-04-01T12:37:15;12.30;99.90
10812;DHT22;5458;51.496;7.334;2023-04-01T12:42:56;12.20;99.90
10812;DHT22;5458;51.496;7.334;2023-04-01T12:48:57;12.20;99.90
10812;DHT22;5458;51.496;7.334;2023-04-01T12:54:48;12.30;99.90
10812;DHT22;5458;51.496;7.334;2023-04-01T13:11:17;12.70;99.90
10812;DHT22;5458;51.496;7.334;2023-04-01T13:19:07;12.60;99.90
10812;DHT22;5458;51.496;7.334;2023-04-01T13:21:53;12.60;99.90
10812;DHT22;5458;51.496;7.334;2023-04-01T13:35:39;12.30;99.90
10812;DHT22;5458;51.496;7.334;2023-04-01T13:43:24;12.30;99.90
10812;DHT22;5458;51.496;7.334;2023-04-01T13:46:15;12.20;99.90
10812;DHT22;5458;51.496;7.334;2023-04-01T13:49:19;12.20;99.90
10812;DHT22;5458;51.496;7.334;2023-04-01T13:58:19;12.20;99.90
10812;DHT22;5458;51.496;7.334;2023-04-01T14:10:06;12.30;99.90
10812;DHT22;5458;51.496;7.334;2023-04-01T14:20:25;12.50;99.90
10812;DHT22;5458;51.496;7.334;2023-04-01T14:23:19;12.50;99.90
10812;DHT22;5458;51.496;7.334;2023-04-01T14:26:03;12.40;99.90
10812;DHT22;5458;51.496;7.334;2023-04-01T14:37:23;12.10;99.90
10812;DHT22;5458;51.496;7.334;2023-04-01T14:50:51;12.00;99.90
10812;DHT22;5458;51.496;7.334;2023-04-01T14:53:41;12.10;99.90
10812;DHT22;5458;51.496;7.334;2023-04-01T14:56:11;12.10;99.90
10812;DHT22;5458;51.496;7.334;2023-04-01T14:58:45;12.00;99.90
10812;DHT22;5458;51.496;7.334;2023-04-01T15:01:50;12.00;99.90
10812;DHT22;5458;51.496;7.334;2023-04-01T15:18:11;12.20;99.90
10812;DHT22;5458;51.496;7.334;2023-04-01T15:23:59;12.30;99.90
10812;DHT22;5458;51.496;7.334;2023-04-01T15:32:49;12.20;99.90
10812;DHT22;5458;51.496;7.334;2023-04-01T15:35:46;12.10;99.90
10812;DHT22;5458;51.496;7.334;2023-04-01T15:38:29;12.20;99.90
10812;DHT22;5458;51.496;7.334;2023-04-01T15:41:29;12.30;99.90
10812;DHT22;5458;51.496;7.334;2023-04-01T15:44:01;12.20;99.90
10812;DHT22;5458;51.496;7.334;2023-04-01T15:46:51;12.30;99.90
10812;DHT22;5458;51.496;7.334;2023-04-01T15:49:36;12.30;99.90
10812;DHT22;5458;51.496;7.334;2023-04-01T15:52:19;12.30;99.90
10812;DHT22;5458;51.496;7.334;2023-04-01T16:00:26;12.30;99.90
10812;DHT22;5458;51.496;7.334;2023-04-01T16:14:10;12.30;99.90
10812;DHT22;5458;51.496;7.334;2023-04-01T16:25:01;12.20;99.90
10812;DHT22;5458;51.496;7.334;2023-04-01T16:28:03;12.20;99.90
10812;DHT22;5458;51.496;7.334;2023-04-01T16:30:45;12.20;99.90
10812;DHT22;5458;51.496;7.334;2023-04-01T16:36:22;12.10;99.90
10812;DHT22;5458;51.496;7.334;2023-04-01T16:41:46;12.10;99.90
10812;DHT22;5458;51.496;7.334;2023-04-01T16:44:23;12.10;99.90
10812;DHT22;5458;51.496;7.334;2023-04-01T16:46:52;12.10;99.90
10812;DHT22;5458;51.496;7.334;2023-04-01T16:49:37;12.10;99.90
10812;DHT22;5458;51.496;7.334;2023-04-01T16:54:56;12.10;99.90
10812;DHT22;5458;51.496;7.334;2023-04-01T17:00:24;12.10;99.90
10812;DHT22;5458;51.496;7.334;2023-04-01T17:03:13;12.10;99.90
10812;DHT22;5458;51.496;7.334;2023-04-01T17:06:00;12.10;99.90
10812;DHT22;5458;51.496;7.334;2023-04-01T17:11:21;12.00;99.90
10812;DHT22;5458;51.496;7.334;2023-04-01T17:24:59;12.00;99.90
10812;DHT22;5458;51.496;7.334;2023-04-01T17:28:10;11.90;99.90
10812;DHT22;5458;51.496;7.334;2023-04-01T17:39:15;12.00;99.90
10812;DHT22;5458;51.496;7.334;2023-04-01T17:50:17;12.00;99.90
10812;DHT22;5458;51.496;7.334;2023-04-01T18:01:14;11.80;99.90
10812;DHT22;5458;51.496;7.334;2023-04-01T18:06:30;11.90;99.90
10812;DHT22;5458;51.496;7.334;2023-04-01T18:09:27;11.80;99.90
10812;DHT22;5458;51.496;7.334;2023-04-01T18:15:09;11.70;99.90
10812;DHT22;5458;51.496;7.334;2023-04-01T18:20:35;11.80;99.90
10812;DHT22;5458;51.496;7.334;2023-04-01T18:23:24;11.80;99.90
10812;DHT22;5458;51.496;7.334;2023-04-01T18:26:02;11.70;99.90
10812;DHT22;5458;51.496;7.334;2023-04-01T18:35:28;11.80;99.90
10812;DHT22;5458;51.496;7.334;2023-04-01T18:38:11;11.80;99.90
10812;DHT22;5458;51.496;7.334;2023-04-01T18:41:07;11.80;99.90
10812;DHT22;5458;51.496;7.334;2023-04-01T18:43:51;11.80;99.90
10812;DHT22;5458;51.496;7.334;2023-04-01T18:46:39;11.80;99.90
10812;DHT22;5458;51.496;7.334;2023-04-01T18:49:33;11.80;99.90
10812;DHT22;5458;51.496;7.334;2023-04-01T18:57:18;11.80;99.90
10812;DHT22;5458;51.496;7.334;2023-04-01T18:59:55;11.80;99.90
10812;DHT22;5458;51.496;7.334;2023-04-01T19:02:44;11.80;99.90
10812;DHT22;5458;51.496;7.334;2023-04-01T19:05:17;11.80;99.90
10812;DHT22;5458;51.496;7.334;2023-04-01T19:07:50;11.80;99.90
10812;DHT22;5458;51.496;7.334;2023-04-01T19:10:41;11.80;99.90
10812;DHT22;5458;51.496;7.334;2023-04-01T19:32:24;11.70;99.90
10812;DHT22;5458;51.496;7.334;2023-04-01T19:37:50;11.70;99.90
10812;DHT22;5458;51.496;7.334;2023-04-01T19:40:35;11.70;99.90
10812;DHT22;5458;51.496;7.334;2023-04-01T19:43:03;11.70;99.90
10812;DHT22;5458;51.496;7.334;2023-04-01T19:50:59;11.60;99.90
10812;DHT22;5458;51.496;7.334;2023-04-01T19:56:48;11.40;99.90
10812;DHT22;5458;51.496;7.334;2023-04-01T20:04:48;11.30;99.90
10812;DHT22;5458;51.496;7.334;2023-04-01T20:07:27;11.30;99.90
10812;DHT22;5458;51.496;7.334;2023-04-01T20:10:03;11.30;99.90
10812;DHT22;5458;51.496;7.334;2023-04-01T20:15:35;11.20;99.90
10812;DHT22;5458;51.496;7.334;2023-04-01T20:21:00;11.20;99.90
10812;DHT22;5458;51.496;7.334;2023-04-01T20:23:49;11.20;99.90
10812;DHT22;5458;51.496;7.334;2023-04-01T20:26:21;11.20;99.90
10812;DHT22;5458;51.496;7.334;2023-04-01T20:28:50;11.10;99.90
10812;DHT22;5458;51.496;7.334;2023-04-01T20:31:42;11.10;99.90
10812;DHT22;5458;51.496;7.334;2023-04-01T20:37:07;11.00;99.90
10812;DHT22;5458;51.496;7.334;2023-04-01T20:45:08;10.90;99.90
10812;DHT22;5458;51.496;7.334;2023-04-01T20:50:34;10.90;99.90
10812;DHT22;5458;51.496;7.334;2023-04-01T20:53:15;10.90;99.90
10812;DHT22;5458;51.496;7.334;2023-04-01T21:15:07;10.70;99.90
10812;DHT22;5458;51.496;7.334;2023-04-01T21:20:21;10.60;99.90
10812;DHT22;5458;51.496;7.334;2023-04-01T21:22:54;10.60;99.90
10812;DHT22;5458;51.496;7.334;2023-04-01T21:28:21;10.60;99.90
10812;DHT22;5458;51.496;7.334;2023-04-01T21:33:25;10.50;99.90
10812;DHT22;5458;51.496;7.334;2023-04-01T21:50:18;10.30;99.90
10812;DHT22;5458;51.496;7.334;2023-04-01T22:16:12;10.00;99.90
10812;DHT22;5458;51.496;7.334;2023-04-01T22:19:09;10.00;99.90
10812;DHT22;5458;51.496;7.334;2023-04-01T22:22:49;9.90;99.90
10812;DHT22;5458;51.496;7.334;2023-04-01T22:24:55;9.90;99.90
10812;DHT22;5458;51.496;7.334;2023-04-01T22:27:40;9.90;99.90
10812;DHT22;5458;51.496;7.334;2023-04-01T22:30:26;9.80;99.90
10812;DHT22;5458;51.496;7.334;2023-04-01T22:33:10;9.80;99.90
10812;DHT22;5458;51.496;7.334;2023-04-01T22:41:18;9.60;99.90
10812;DHT22;5458;51.496;7.334;2023-04-01T22:43:47;9.60;99.90
10812;DHT22;5458;51.496;7.334;2023-04-01T22:49:09;9.60;99.90
10812;DHT22;5458;51.496;7.334;2023-04-01T22:51:42;9.50;99.90
10812;DHT22;5458;51.496;7.334;2023-04-01T22:54:23;9.50;99.90
10812;DHT22;5458;51.496;7.334;2023-04-01T22:56:56;9.40;99.90
10812;DHT22;5458;51.496;7.334;2023-04-01T22:59:42;9.30;99.90
10812;DHT22;5458;51.496;7.334;2023-04-01T23:02:28;9.30;99.90
10812;DHT22;5458;51.496;7.334;2023-04-01T23:04:58;9.20;99.90
10812;DHT22;5458;51.496;7.334;2023-04-01T23:08:19;9.20;99.90
10812;DHT22;5458;51.496;7.334;2023-04-01T23:10:47;9.20;99.90
10812;DHT22;5458;51.496;7.334;2023-04-01T23:13:42;9.10;99.90
10812;DHT22;5458;51.496;7.334;2023-04-01T23:16:09;9.10;99.90
10812;DHT22;5458;51.496;7.334;2023-04-01T23:18:44;9.20;99.90
10812;DHT22;5458;51.496;7.334;2023-04-01T23:24:03;9.20;99.90
10812;DHT22;5458;51.496;7.334;2023-04-01T23:26:45;9.20;99.90
10812;DHT22;5458;51.496;7.334;2023-04-01T23:29:15;9.20;99.90
10812;DHT22;5458;51.496;7.334;2023-04-01T23:31:45;9.20;99.90
10812;DHT22;5458;51.496;7.334;2023-04-01T23:36:40;9.20;99.90
10812;DHT22;5458;51.496;7.334;2023-04-01T23:41:46;9.10;99.90
10812;DHT22;5458;51.496;7.334;2023-04-01T23:44:13;9.10;99.90
10812;DHT22;5458;51.496;7.334;2023-04-01T23:46:42;9.10;99.90
10812;DHT22;5458;51.496;7.334;2023-04-01T23:49:17;9.00;99.90
10812;DHT22;5458;51.496;7.334;2023-04-01T23:51:59;9.00;99.90
10812;DHT22;5458;51.496;7.334;2023-04-01T23:54:33;9.00;99.90
10812;DHT22;5458;51.496;7.334;2023-04-01T23:56:59;8.90;99.90
10812;DHT22;5458;51.496;7.334;2023-04-01T23:59:33;8.90;99.90
